createdAt,value
2023-01-10T00:02:05.881Z,41.80
2023-01-10T00:04:34.277Z,39.13
2023-01-10T00:07:03.184Z,39.90
2023-01-10T00:09:32.948Z,50.03
2023-01-10T00:12:18.959Z,51.20
2023-01-10T00:14:47.303Z,44.57
2023-01-10T00:17:16.313Z,45.87
2023-01-10T00:19:44.686Z,39.97
2023-01-10T00:22:21.835Z,39.40
2023-01-10T00:24:51.852Z,46.57
2023-01-10T00:27:23.481Z,44.20
2023-01-10T00:29:53.348Z,49.80
2023-01-10T00:32:22.712Z,38.53
2023-01-10T00:34:51.171Z,52.20
2023-01-10T00:37:20.021Z,35.43
2023-01-10T00:39:48.446Z,38.03
2023-01-10T00:42:35.972Z,36.80
2023-01-10T00:45:04.645Z,33.40
2023-01-10T00:47:33.365Z,32.63
2023-01-10T00:50:02.099Z,41.80
2023-01-10T00:52:30.886Z,40.97
2023-01-10T00:54:59.475Z,49.57
2023-01-10T00:57:29.545Z,43.40
2023-01-10T00:59:57.978Z,40.73
2023-01-10T01:02:27.168Z,39.87
2023-01-10T01:04:55.727Z,39.87
2023-01-10T01:07:24.482Z,38.30
2023-01-10T01:10:10.322Z,42.20
2023-01-10T01:12:40.378Z,44.10
2023-01-10T01:15:09.792Z,46.73
2023-01-10T01:17:38.415Z,32.13
2023-01-10T01:20:08.154Z,40.60
2023-01-10T01:22:37.600Z,41.17
2023-01-10T01:25:06.942Z,37.93
2023-01-10T01:27:38.061Z,33.40
2023-01-10T01:30:10.841Z,38.60
2023-01-10T01:32:39.977Z,44.17
2023-01-10T01:35:09.782Z,24.90
2023-01-10T01:37:38.471Z,42.80
2023-01-10T01:40:08.924Z,31.27
2023-01-10T01:42:38.044Z,30.37
2023-01-10T01:45:41.485Z,28.30
2023-01-10T01:48:24.513Z,32.07
2023-01-10T01:51:05.248Z,32.37
2023-01-10T01:53:38.398Z,34.00
2023-01-10T01:56:12.065Z,34.87
2023-01-10T01:58:47.956Z,35.67
2023-01-10T02:01:18.776Z,35.43
2023-01-10T02:03:52.582Z,24.10
2023-01-10T02:06:23.103Z,29.17
2023-01-10T02:08:58.192Z,27.53
2023-01-10T02:11:26.657Z,25.17
2023-01-10T02:13:56.378Z,31.03
2023-01-10T02:16:26.151Z,31.43
2023-01-10T02:18:54.993Z,22.93
2023-01-10T02:21:49.289Z,30.63
2023-01-10T02:24:51.624Z,24.33
2023-01-10T02:27:29.434Z,24.43
2023-01-10T02:30:19.912Z,39.90
2023-01-10T02:33:04.304Z,29.93
2023-01-10T02:35:51.841Z,25.77
2023-01-10T02:38:31.010Z,26.10
2023-01-10T02:41:07.742Z,27.33
2023-01-10T02:43:40.247Z,24.53
2023-01-10T02:46:13.180Z,33.30
2023-01-10T02:48:43.082Z,27.40
2023-01-10T02:51:19.668Z,30.00
2023-01-10T02:53:53.379Z,25.87
2023-01-10T02:57:05.512Z,19.40
2023-01-10T02:59:58.689Z,24.70
2023-01-10T03:02:44.303Z,23.80
2023-01-10T03:05:23.846Z,29.17
2023-01-10T03:08:01.747Z,31.23
2023-01-10T03:10:33.903Z,30.23
2023-01-10T03:13:07.117Z,20.37
2023-01-10T03:15:38.705Z,29.47
2023-01-10T03:18:13.797Z,31.33
2023-01-10T03:20:47.803Z,26.27
2023-01-10T03:23:19.238Z,30.90
2023-01-10T03:25:48.939Z,25.53
2023-01-10T03:28:23.565Z,23.13
2023-01-10T03:30:55.346Z,28.10
2023-01-10T03:33:28.128Z,23.40
2023-01-10T03:36:08.947Z,21.17
2023-01-10T03:38:45.854Z,22.27
2023-01-10T03:41:18.092Z,23.53
2023-01-10T03:44:10.666Z,24.40
2023-01-10T03:46:45.175Z,22.43
2023-01-10T03:49:16.262Z,24.40
2023-01-10T03:51:47.328Z,20.70
2023-01-10T03:54:17.624Z,23.73
2023-01-10T03:56:47.683Z,20.13
2023-01-10T03:59:16.691Z,20.53
2023-01-10T04:01:45.171Z,23.70
2023-01-10T04:04:14.208Z,19.00
2023-01-10T04:06:42.723Z,21.13
2023-01-10T04:09:13.010Z,23.33
2023-01-10T04:11:41.472Z,25.93
2023-01-10T04:14:10.267Z,23.07
2023-01-10T04:16:38.570Z,23.67
2023-01-10T04:19:07.441Z,26.23
2023-01-10T04:21:35.905Z,21.80
2023-01-10T04:24:05.009Z,18.30
2023-01-10T04:26:34.855Z,25.77
2023-01-10T04:29:03.593Z,22.07
2023-01-10T04:31:31.961Z,22.97
2023-01-10T04:34:01.126Z,23.07
2023-01-10T04:36:29.811Z,22.90
2023-01-10T04:38:58.490Z,19.47
2023-01-10T04:41:26.878Z,21.23
2023-01-10T04:43:57.029Z,18.93
2023-01-10T04:46:25.477Z,17.43
2023-01-10T04:48:54.271Z,17.60
2023-01-10T04:51:22.874Z,19.63
2023-01-10T04:53:52.061Z,19.43
2023-01-10T04:56:22.009Z,21.53
2023-01-10T04:58:53.767Z,19.57
2023-01-10T05:01:25.530Z,19.20
2023-01-10T05:03:55.602Z,25.03
2023-01-10T05:06:25.429Z,21.63
2023-01-10T05:08:54.291Z,20.37
2023-01-10T05:11:22.633Z,24.73
2023-01-10T05:13:51.447Z,27.80
2023-01-10T05:16:19.853Z,23.13
2023-01-10T05:18:50.778Z,23.53
2023-01-10T05:21:19.679Z,30.30
2023-01-10T05:23:49.819Z,27.53
2023-01-10T05:26:20.058Z,25.57
2023-01-10T05:28:48.742Z,27.83
2023-01-10T05:31:20.024Z,21.03
2023-01-10T05:33:52.278Z,22.43
2023-01-10T05:36:20.920Z,17.33
2023-01-10T05:38:49.755Z,18.20
2023-01-10T05:41:18.379Z,28.10
2023-01-10T05:43:47.290Z,22.47
2023-01-10T05:46:15.801Z,18.97
2023-01-10T05:48:44.556Z,21.77
2023-01-10T05:51:14.638Z,21.37
2023-01-10T05:53:43.383Z,23.07
2023-01-10T05:56:11.787Z,28.43
2023-01-10T05:58:40.796Z,26.07
2023-01-10T06:01:09.832Z,19.57
2023-01-10T06:03:38.534Z,25.70
2023-01-10T06:06:07.302Z,31.10
2023-01-10T06:08:37.864Z,24.30
2023-01-10T06:11:06.970Z,20.73
2023-01-10T06:13:35.860Z,21.67
2023-01-10T06:16:04.893Z,22.63
2023-01-10T06:18:33.510Z,17.10
2023-01-10T06:21:02.356Z,17.57
2023-01-10T06:23:31.107Z,19.33
2023-01-10T06:26:00.952Z,22.63
2023-01-10T06:28:29.851Z,21.03
2023-01-10T06:30:58.211Z,27.83
2023-01-10T06:33:27.406Z,52.90
2023-01-10T06:35:55.790Z,27.47
2023-01-10T06:38:24.399Z,20.03
2023-01-10T06:40:52.816Z,20.40
2023-01-10T06:43:25.167Z,20.77
2023-01-10T06:45:54.946Z,18.37
2023-01-10T06:48:23.719Z,21.80
2023-01-10T06:50:52.150Z,26.67
2023-01-10T06:53:21.257Z,19.23
2023-01-10T06:55:50.572Z,19.43
2023-01-10T06:58:19.318Z,32.57
2023-01-10T07:00:49.130Z,29.23
2023-01-10T07:03:18.288Z,34.27
2023-01-10T07:05:47.278Z,34.53
2023-01-10T07:08:16.184Z,25.37
2023-01-10T07:10:45.094Z,30.97
2023-01-10T07:13:13.742Z,28.40
2023-01-10T07:15:42.114Z,23.80
2023-01-10T07:18:12.918Z,27.83
2023-01-10T07:20:41.562Z,28.50
2023-01-10T07:23:11.000Z,25.40
2023-01-10T07:25:39.373Z,31.90
2023-01-10T07:28:08.311Z,30.83
2023-01-10T07:30:37.650Z,23.53
2023-01-10T07:33:06.392Z,26.17
2023-01-10T07:35:36.171Z,30.80
2023-01-10T07:38:05.568Z,21.97
2023-01-10T07:40:33.916Z,21.23
2023-01-10T07:43:03.745Z,27.10
2023-01-10T07:45:32.502Z,29.73
2023-01-10T07:48:02.413Z,20.43
2023-01-10T07:50:32.432Z,29.37
2023-01-10T07:53:03.890Z,23.03
2023-01-10T07:55:34.794Z,22.73
2023-01-10T07:58:03.914Z,28.83
2023-01-10T08:00:32.318Z,20.83
2023-01-10T08:03:01.373Z,29.63
2023-01-10T08:05:30.036Z,39.13
2023-01-10T08:08:00.252Z,29.87
2023-01-10T08:10:30.149Z,29.63
2023-01-10T08:13:03.947Z,33.67
2023-01-10T08:15:38.272Z,26.53
2023-01-10T08:18:06.987Z,25.40
2023-01-10T08:20:35.417Z,20.00
2023-01-10T08:23:04.294Z,23.30
2023-01-10T08:25:34.145Z,27.27
2023-01-10T08:28:02.852Z,33.60
2023-01-10T08:30:32.050Z,26.70
2023-01-10T08:33:03.456Z,20.10
2023-01-10T08:35:32.094Z,34.67
2023-01-10T08:38:01.393Z,24.23
2023-01-10T08:40:29.842Z,32.47
2023-01-10T08:43:01.297Z,34.67
2023-01-10T08:45:30.059Z,25.37
2023-01-10T08:47:58.915Z,35.20
2023-01-10T08:50:27.696Z,48.30
2023-01-10T08:52:59.412Z,24.37
2023-01-10T08:55:28.636Z,28.40
2023-01-10T08:57:57.256Z,27.73
2023-01-10T09:00:27.155Z,26.03
2023-01-10T09:02:55.971Z,64.93
2023-01-10T09:05:27.918Z,64.13
2023-01-10T09:08:01.402Z,45.57
2023-01-10T09:10:30.630Z,66.80
2023-01-10T09:13:01.633Z,46.73
2023-01-10T09:15:33.784Z,24.23
2023-01-10T09:18:04.794Z,41.43
2023-01-10T09:20:35.387Z,46.60
2023-01-10T09:23:08.411Z,48.03
2023-01-10T09:25:37.165Z,56.40
2023-01-10T09:28:06.888Z,47.07
2023-01-10T09:30:37.416Z,44.20
2023-01-10T09:33:08.117Z,59.63
2023-01-10T09:35:38.651Z,46.13
2023-01-10T09:38:09.222Z,32.60
2023-01-10T09:40:52.753Z,30.83
2023-01-10T09:43:29.476Z,32.23
2023-01-10T09:46:05.706Z,39.67
2023-01-10T09:48:45.215Z,28.53
2023-01-10T09:51:30.028Z,41.73
2023-01-10T09:54:11.165Z,31.77
2023-01-10T09:56:41.597Z,34.93
2023-01-10T09:59:16.689Z,25.73
2023-01-10T10:01:47.844Z,23.73
2023-01-10T10:04:26.882Z,23.33
2023-01-10T10:06:55.706Z,19.27
2023-01-10T10:09:28.035Z,28.33
2023-01-10T10:12:20.912Z,21.50
2023-01-10T10:15:03.634Z,40.07
2023-01-10T10:17:43.252Z,26.27
2023-01-10T10:20:27.745Z,40.10
2023-01-10T10:23:07.580Z,29.07
2023-01-10T10:25:54.999Z,41.40
2023-01-10T10:28:55.153Z,34.00
2023-01-10T10:31:41.626Z,29.37
2023-01-10T10:34:20.498Z,28.20
2023-01-10T10:36:52.948Z,44.43
2023-01-10T10:39:29.747Z,61.83
2023-01-10T10:41:59.141Z,45.70
2023-01-10T10:44:34.831Z,44.93
2023-01-10T10:47:03.690Z,85.50
2023-01-10T10:49:39.654Z,50.77
2023-01-10T10:52:18.611Z,57.07
2023-01-10T10:54:47.940Z,30.30
2023-01-10T10:57:17.239Z,37.53
2023-01-10T10:59:48.818Z,21.90
2023-01-10T11:02:24.855Z,21.17
2023-01-10T11:04:58.385Z,34.93
2023-01-10T11:07:32.754Z,30.93
2023-01-10T11:10:10.267Z,24.93
2023-01-10T11:12:45.209Z,19.60
2023-01-10T11:15:13.612Z,24.73
2023-01-10T11:17:42.324Z,32.30
2023-01-10T11:20:18.133Z,20.83
2023-01-10T11:22:50.465Z,24.63
2023-01-10T11:25:21.800Z,28.33
2023-01-10T11:27:53.131Z,23.57
2023-01-10T11:30:24.682Z,25.70
2023-01-10T11:32:55.588Z,26.90
2023-01-10T11:35:28.333Z,25.33
2023-01-10T11:38:01.753Z,30.00
2023-01-10T11:40:30.801Z,22.23
2023-01-10T11:43:01.117Z,32.03
2023-01-10T11:45:32.599Z,31.87
2023-01-10T11:48:09.936Z,29.07
2023-01-10T11:50:42.834Z,25.67
2023-01-10T11:53:35.445Z,95.83
2023-01-10T11:56:05.390Z,50.47
2023-01-10T11:58:38.222Z,107.60
2023-01-10T12:01:07.169Z,88.33
2023-01-10T12:03:40.243Z,85.77
2023-01-10T12:06:16.278Z,37.07
2023-01-10T12:08:45.381Z,55.83
2023-01-10T12:11:27.388Z,86.20
2023-01-10T12:13:58.431Z,31.50
2023-01-10T12:16:28.938Z,30.93
2023-01-10T12:19:01.034Z,43.90
2023-01-10T12:21:38.381Z,30.00
2023-01-10T12:24:13.875Z,53.17
2023-01-10T12:26:43.644Z,61.77
2023-01-10T12:29:17.698Z,54.77
2023-01-10T12:31:46.670Z,57.03
2023-01-10T12:34:20.405Z,56.17
2023-01-10T12:36:59.543Z,30.27
2023-01-10T12:39:33.417Z,34.07
2023-01-10T12:42:32.614Z,22.50
2023-01-10T12:45:06.899Z,35.10
2023-01-10T12:47:44.654Z,50.57
2023-01-10T12:50:18.857Z,51.10
2023-01-10T12:52:56.349Z,27.30
2023-01-10T12:55:28.921Z,40.03
2023-01-10T12:58:00.887Z,24.63
2023-01-10T13:00:40.467Z,36.47
2023-01-10T13:03:20.841Z,16.00
2023-01-10T13:05:52.166Z,21.40
2023-01-10T13:08:26.711Z,27.53
2023-01-10T13:10:58.459Z,23.13
2023-01-10T13:13:37.228Z,20.87
2023-01-10T13:16:25.158Z,18.17
2023-01-10T13:19:02.288Z,21.67
2023-01-10T13:21:32.717Z,23.63
2023-01-10T13:24:04.526Z,25.50
2023-01-10T13:26:53.442Z,26.37
2023-01-10T13:29:24.462Z,43.20
2023-01-10T13:31:57.554Z,19.30
2023-01-10T13:34:33.074Z,71.77
2023-01-10T13:37:05.643Z,56.13
2023-01-10T13:39:39.426Z,29.63
2023-01-10T13:42:41.070Z,27.37
2023-01-10T13:45:21.189Z,22.83
2023-01-10T13:48:05.221Z,22.70
2023-01-10T13:51:16.710Z,28.47
2023-01-10T13:53:54.921Z,25.57
2023-01-10T13:56:39.452Z,20.23
2023-01-10T13:59:53.167Z,29.97
2023-01-10T14:02:32.107Z,42.93
2023-01-10T14:05:03.014Z,30.93
2023-01-10T14:07:35.547Z,30.10
2023-01-10T14:10:06.806Z,29.43
2023-01-10T14:12:40.300Z,22.80
2023-01-10T14:15:22.594Z,30.03
2023-01-10T14:17:59.426Z,17.00
2023-01-10T14:20:29.656Z,32.17
2023-01-10T14:23:20.561Z,23.33
2023-01-10T14:25:54.697Z,25.97
2023-01-10T14:28:26.958Z,20.73
2023-01-10T14:31:03.342Z,24.30
2023-01-10T14:33:34.262Z,30.20
2023-01-10T14:36:08.461Z,35.47
2023-01-10T14:38:39.403Z,26.53
2023-01-10T14:41:13.801Z,21.67
2023-01-10T14:43:47.033Z,33.47
2023-01-10T14:46:19.074Z,28.57
2023-01-10T14:48:51.684Z,32.00
2023-01-10T14:51:23.876Z,28.83
2023-01-10T14:53:58.295Z,24.80
2023-01-10T14:56:28.932Z,32.43
2023-01-10T14:58:57.578Z,31.13
2023-01-10T15:01:29.537Z,29.20
2023-01-10T15:04:02.743Z,38.07
2023-01-10T15:06:51.184Z,40.77
2023-01-10T15:09:19.630Z,29.47
2023-01-10T15:11:50.135Z,31.30
2023-01-10T15:14:23.340Z,34.27
2023-01-10T15:16:55.268Z,37.90
2023-01-10T15:19:26.093Z,32.13
2023-01-10T15:21:55.103Z,36.60
2023-01-10T15:24:34.983Z,40.20
2023-01-10T15:27:05.728Z,41.93
2023-01-10T15:29:35.529Z,40.37
2023-01-10T15:32:10.769Z,35.90
2023-01-10T15:34:42.333Z,27.93
2023-01-10T15:37:22.059Z,40.87
2023-01-10T15:39:50.896Z,34.13
2023-01-10T15:42:22.359Z,39.67
2023-01-10T15:44:53.510Z,35.80
2023-01-10T15:47:52.683Z,30.50
2023-01-10T15:50:28.570Z,40.97
2023-01-10T15:52:58.800Z,49.80
2023-01-10T15:55:39.294Z,30.73
2023-01-10T15:58:23.731Z,42.87
2023-01-10T16:00:53.492Z,30.07
2023-01-10T16:03:35.808Z,69.27
2023-01-10T16:06:09.719Z,35.87
2023-01-10T16:08:39.735Z,26.67
2023-01-10T16:11:38.004Z,30.27
2023-01-10T16:14:05.909Z,34.47
2023-01-10T16:16:34.651Z,30.87
2023-01-10T16:19:03.487Z,29.87
2023-01-10T16:21:39.703Z,29.27
2023-01-10T16:24:14.889Z,32.93
2023-01-10T16:26:43.399Z,37.57
2023-01-10T16:29:13.188Z,31.70
2023-01-10T16:31:41.910Z,42.00
2023-01-10T16:34:10.761Z,51.40
2023-01-10T16:36:41.328Z,30.07
2023-01-10T16:39:15.862Z,35.93
2023-01-10T16:42:02.364Z,36.37
2023-01-10T16:44:32.003Z,41.33
2023-01-10T16:47:01.097Z,35.50
2023-01-10T16:49:29.800Z,38.90
2023-01-10T16:51:59.629Z,35.23
2023-01-10T16:54:28.623Z,38.20
2023-01-10T16:56:57.409Z,40.93
2023-01-10T16:59:26.143Z,38.80
2023-01-10T17:01:57.912Z,36.27
2023-01-10T17:04:29.915Z,28.00
2023-01-10T17:07:00.295Z,29.80
2023-01-10T17:09:31.363Z,39.10
2023-01-10T17:12:03.547Z,35.63
2023-01-10T17:14:34.072Z,36.23
2023-01-10T17:17:05.648Z,45.23
2023-01-10T17:19:34.698Z,52.80
2023-01-10T17:22:04.429Z,46.10
2023-01-10T17:24:33.050Z,40.33
2023-01-10T17:27:01.398Z,41.67
2023-01-10T17:29:31.504Z,38.13
2023-01-10T17:31:59.958Z,41.20
2023-01-10T17:34:29.737Z,36.93
2023-01-10T17:36:58.281Z,42.80
2023-01-10T17:39:28.368Z,42.30
2023-01-10T17:41:57.628Z,39.17
2023-01-10T17:44:26.330Z,41.63
2023-01-10T17:46:56.945Z,44.53
2023-01-10T17:49:26.263Z,40.37
2023-01-10T17:51:54.840Z,36.50
2023-01-10T17:54:23.498Z,49.00
2023-01-10T17:56:53.251Z,44.40
2023-01-10T17:59:22.224Z,46.37
2023-01-10T18:01:50.724Z,44.23
2023-01-10T18:04:19.423Z,42.30
2023-01-10T18:06:47.845Z,44.20
2023-01-10T18:09:16.596Z,48.80
2023-01-10T18:11:44.917Z,51.33
2023-01-10T18:14:32.429Z,49.87
2023-01-10T18:17:00.917Z,58.87
2023-01-10T18:19:30.778Z,59.20
2023-01-10T18:21:59.159Z,43.30
2023-01-10T18:24:27.837Z,45.87
2023-01-10T18:26:56.306Z,40.23
2023-01-10T18:29:26.745Z,33.67
2023-01-10T18:31:55.302Z,53.53
2023-01-10T18:34:24.043Z,53.43
2023-01-10T18:36:52.412Z,76.57
2023-01-10T18:39:21.745Z,75.70
2023-01-10T18:41:50.205Z,67.93
2023-01-10T18:44:19.147Z,78.87
2023-01-10T18:46:48.977Z,62.60
2023-01-10T18:49:18.037Z,57.83
2023-01-10T18:51:46.386Z,57.23
2023-01-10T18:54:15.180Z,63.87
2023-01-10T18:56:43.519Z,55.90
2023-01-10T18:59:12.161Z,61.37
2023-01-10T19:01:40.669Z,64.80
2023-01-10T19:04:11.369Z,48.23
2023-01-10T19:06:39.928Z,49.97
2023-01-10T19:09:08.692Z,63.33
2023-01-10T19:11:37.120Z,47.43
2023-01-10T19:14:05.844Z,50.57
2023-01-10T19:16:34.579Z,59.50
2023-01-10T19:19:05.649Z,58.13
2023-01-10T19:21:37.759Z,52.67
2023-01-10T19:24:08.706Z,54.47
2023-01-10T19:26:37.166Z,52.83
2023-01-10T19:29:06.169Z,51.37
2023-01-10T19:31:34.963Z,54.40
2023-01-10T19:34:03.722Z,52.50
2023-01-10T19:36:34.644Z,45.50
2023-01-10T19:39:07.076Z,47.97
2023-01-10T19:41:36.034Z,41.87
2023-01-10T19:44:07.597Z,56.20
2023-01-10T19:46:37.181Z,43.63
2023-01-10T19:49:07.954Z,42.10
2023-01-10T19:51:37.065Z,47.83
2023-01-10T19:54:09.114Z,52.37
2023-01-10T19:56:38.113Z,45.07
2023-01-10T19:59:07.541Z,42.00
2023-01-10T20:01:36.184Z,45.90
2023-01-10T20:04:07.163Z,43.37
2023-01-10T20:06:38.717Z,46.13
2023-01-10T20:09:11.736Z,42.73
2023-01-10T20:11:42.038Z,37.80
2023-01-10T20:14:14.652Z,41.60
2023-01-10T20:16:44.261Z,42.57
2023-01-10T20:19:13.511Z,41.47
2023-01-10T20:21:43.381Z,46.43
2023-01-10T20:24:16.571Z,49.90
2023-01-10T20:26:45.801Z,59.83
2023-01-10T20:29:14.895Z,53.47
2023-01-10T20:31:46.511Z,90.07
2023-01-10T20:34:15.495Z,50.30
2023-01-10T20:36:44.034Z,45.67
2023-01-10T20:39:14.221Z,47.40
2023-01-10T20:41:42.681Z,48.67
2023-01-10T20:44:11.387Z,55.40
2023-01-10T20:46:40.001Z,43.23
2023-01-10T20:49:08.688Z,46.77
2023-01-10T20:51:37.593Z,53.00
2023-01-10T20:54:08.203Z,49.23
2023-01-10T20:56:40.123Z,41.87
2023-01-10T20:59:09.162Z,46.77
2023-01-10T21:01:37.861Z,40.37
2023-01-10T21:04:08.313Z,43.03
2023-01-10T21:06:37.394Z,36.70
2023-01-10T21:09:06.919Z,38.87
2023-01-10T21:11:52.103Z,35.50
2023-01-10T21:14:25.601Z,66.00
2023-01-10T21:16:54.057Z,45.17
2023-01-10T21:19:22.907Z,51.07
2023-01-10T21:21:51.332Z,56.60
2023-01-10T21:24:22.902Z,39.07
2023-01-10T21:26:52.840Z,43.30
2023-01-10T21:29:21.502Z,44.13
2023-01-10T21:31:52.763Z,52.33
2023-01-10T21:34:21.647Z,48.63
2023-01-10T21:36:50.025Z,51.10
2023-01-10T21:39:19.040Z,45.77
2023-01-10T21:42:04.744Z,42.53
2023-01-10T21:44:35.034Z,51.83
2023-01-10T21:47:03.721Z,38.33
2023-01-10T21:49:32.534Z,48.73
2023-01-10T21:52:00.875Z,38.93
2023-01-10T21:54:29.559Z,41.13
2023-01-10T21:56:58.041Z,48.40
2023-01-10T21:59:26.691Z,39.47
2023-01-10T22:01:56.514Z,46.37
2023-01-10T22:04:25.232Z,44.90
2023-01-10T22:06:53.632Z,46.33
2023-01-10T22:09:24.976Z,43.37
2023-01-10T22:11:53.389Z,44.93
2023-01-10T22:14:22.239Z,42.73
2023-01-10T22:16:50.667Z,39.73
2023-01-10T22:19:20.830Z,39.77
2023-01-10T22:21:49.334Z,36.43
2023-01-10T22:24:18.005Z,35.30
2023-01-10T22:26:46.385Z,41.83
2023-01-10T22:29:16.185Z,38.40
2023-01-10T22:31:44.770Z,39.53
2023-01-10T22:34:13.543Z,41.93
2023-01-10T22:36:43.756Z,31.13
2023-01-10T22:39:12.747Z,32.50
2023-01-10T22:41:41.577Z,41.50
2023-01-10T22:44:19.076Z,35.10
2023-01-10T22:46:47.919Z,31.90
2023-01-10T22:49:16.747Z,39.10
2023-01-10T22:51:46.626Z,34.57
2023-01-10T22:54:16.166Z,33.07
2023-01-10T22:56:45.503Z,38.10
2023-01-10T22:59:14.853Z,33.13
2023-01-10T23:01:43.321Z,34.97
2023-01-10T23:04:12.190Z,32.47
2023-01-10T23:06:40.677Z,25.77
2023-01-10T23:09:10.842Z,37.03
2023-01-10T23:11:39.328Z,36.27
2023-01-10T23:14:08.111Z,35.40
2023-01-10T23:16:36.654Z,30.80
2023-01-10T23:19:05.461Z,36.30
2023-01-10T23:21:33.914Z,30.17
2023-01-10T23:24:02.619Z,36.67
2023-01-10T23:26:32.421Z,43.47
2023-01-10T23:29:01.483Z,37.40
2023-01-10T23:31:31.881Z,33.17
2023-01-10T23:34:00.959Z,37.70
2023-01-10T23:36:29.411Z,36.23
2023-01-10T23:38:58.315Z,39.17
2023-01-10T23:41:27.016Z,39.27
2023-01-10T23:43:57.327Z,32.57
2023-01-10T23:46:25.819Z,37.03
2023-01-10T23:48:54.491Z,31.87
2023-01-10T23:51:22.960Z,35.80
2023-01-10T23:53:51.608Z,31.93
2023-01-10T23:56:20.247Z,34.50
2023-01-10T23:58:52.649Z,40.30
